Time;durP1;ratioP1;P1;durP2;ratioP2;P2;SDS_P1;SDS_P2;PMS_P1;PMS_P2;Temp;Humidity;BMP_temperature;BMP_pressure;BME280_temperature;BME280_humidity;BME280_pressure;Samples;Min_cycle;Max_cycle;Signal;HPM_P1;HPM_P2
2023/05/14 00:01:13;;;;;;;3.58;2.15;;;;;;;13.18;46.06;99955.94;5063263;28;20024;-94
2023/05/14 00:03:39;;;;;;;2.67;2.05;;;;;;;13.23;46.38;99955.13;5062797;28;20024;-93
2023/05/14 00:06:05;;;;;;;5.05;1.85;;;;;;;13.33;45.55;99964.06;5062721;28;20528;-94
2023/05/14 00:08:31;;;;;;;2.72;1.65;;;;;;;13.38;44.93;99967.84;5046662;28;20039;-93
2023/05/14 00:10:56;;;;;;;1.85;1.50;;;;;;;13.26;45.84;99955.41;5063657;28;20482;-93
2023/05/14 00:13:22;;;;;;;2.88;1.90;;;;;;;13.28;44.45;99947.00;5063027;28;20024;-94
2023/05/14 00:15:47;;;;;;;5.90;1.70;;;;;;;13.28;44.19;99947.00;5062579;28;20089;-93
2023/05/14 00:18:13;;;;;;;3.60;1.65;;;;;;;13.37;43.95;99944.59;5046937;28;20028;-94
2023/05/14 00:20:39;;;;;;;2.55;1.63;;;;;;;13.36;44.29;99934.84;5062820;28;20023;-94
2023/05/14 00:23:05;;;;;;;3.03;1.90;;;;;;;13.45;43.60;99934.03;5062234;28;20047;-92
2023/05/14 00:25:30;;;;;;;2.55;1.90;;;;;;;13.42;43.73;99923.75;5062290;28;20024;-93
2023/05/14 00:27:56;;;;;;;5.60;2.00;;;;;;;13.45;42.02;99915.09;5062596;28;20085;-93
2023/05/14 00:30:22;;;;;;;9.68;2.10;;;;;;;13.61;41.29;99932.09;5063032;28;20035;-93
2023/05/14 00:32:47;;;;;;;3.45;2.00;;;;;;;13.77;41.53;99934.78;5061903;28;20024;-93
2023/05/14 00:35:13;;;;;;;4.45;1.90;;;;;;;13.76;41.19;99933.97;5062233;28;20032;-94
2023/05/14 00:37:38;;;;;;;4.55;1.77;;;;;;;13.75;41.06;99916.91;5062379;28;20469;-94
2023/05/14 00:40:05;;;;;;;2.33;1.77;;;;;;;13.83;40.70;99907.41;5062804;28;20024;-94
2023/05/14 00:42:31;;;;;;;3.40;2.00;;;;;;;13.94;39.75;99908.16;5045434;28;20019;-93
2023/05/14 00:44:56;;;;;;;2.67;1.80;;;;;;;13.90;39.58;99899.81;5062258;28;20473;-93
2023/05/14 00:47:22;;;;;;;2.83;1.88;;;;;;;14.10;40.25;99920.56;5062070;28;20051;-94
2023/05/14 00:49:48;;;;;;;3.20;1.92;;;;;;;14.00;39.78;99890.00;5077995;28;20059;-94
2023/05/14 00:52:14;;;;;;;4.57;1.88;;;;;;;14.25;40.09;99916.94;5044012;28;20470;-94
2023/05/14 00:54:39;;;;;;;4.72;2.03;;;;;;;14.22;39.07;99908.59;5061878;28;20032;-94
2023/05/14 00:57:05;;;;;;;3.80;1.70;;;;;;;14.14;39.21;99894.53;5078042;28;20029;-95
2023/05/14 00:59:30;;;;;;;2.72;1.80;;;;;;;14.36;39.02;99920.44;5061072;28;20023;-95
2023/05/14 01:01:56;;;;;;;3.55;2.10;;;;;;;14.18;38.62;99897.50;5060740;28;20066;-94
2023/05/14 01:04:21;;;;;;;3.78;1.83;;;;;;;14.22;38.84;99898.56;5077881;28;20032;-94
2023/05/14 01:07:15;;;;;;;4.13;1.90;;;;;;;14.46;39.01;99914.13;5077733;28;20036;-95
2023/05/14 01:09:54;;;;;;;8.50;2.08;;;;;;;14.46;38.88;99917.63;5077968;28;20028;-95
2023/05/14 01:12:38;;;;;;;3.63;1.98;;;;;;;14.41;39.09;99901.44;5060731;28;20505;-95
2023/05/14 01:15:09;;;;;;;5.82;2.00;;;;;;;14.43;39.28;99904.66;5061488;28;20031;-95
2023/05/14 01:17:46;;;;;;;2.63;1.70;;;;;;;14.37;39.33;99891.44;5078178;28;20032;-94
2023/05/14 01:20:11;;;;;;;2.10;1.60;;;;;;;14.40;39.11;99883.56;5044838;28;20089;-95
2023/05/14 01:22:37;;;;;;;3.30;1.85;;;;;;;14.37;39.25;99872.47;5077030;28;20401;-96
2023/05/14 01:25:03;;;;;;;2.55;1.90;;;;;;;14.34;39.25;99868.44;5061342;28;20043;-95
2023/05/14 01:27:41;;;;;;;2.40;1.73;;;;;;;14.44;39.29;99879.16;5044096;28;20016;-94
2023/05/14 01:30:15;;;;;;;3.65;2.05;;;;;;;14.29;39.02;99858.41;5045679;28;20028;-95
2023/05/14 01:32:40;;;;;;;2.75;1.73;;;;;;;14.34;39.43;99865.72;5061568;28;20085;-94
2023/05/14 01:35:06;;;;;;;4.53;2.10;;;;;;;14.26;39.64;99860.91;5076820;28;20035;-95
2023/05/14 01:37:31;;;;;;;3.63;1.85;;;;;;;14.36;39.63;99871.66;5061178;28;20458;-95
2023/05/14 01:39:57;;;;;;;2.20;1.75;;;;;;;14.33;39.10;99875.72;5077248;28;20027;-95
2023/05/14 01:42:23;;;;;;;3.25;1.90;;;;;;;14.44;39.58;99887.28;5043869;28;20089;-94
2023/05/14 01:44:48;;;;;;;4.97;1.80;;;;;;;14.47;39.87;99892.16;5060131;28;20023;-95
2023/05/14 01:47:14;;;;;;;2.80;1.80;;;;;;;14.44;40.33;99887.28;5060115;28;20047;-96
2023/05/14 01:49:39;;;;;;;4.78;2.40;;;;;;;14.27;40.68;99866.00;5059892;28;20386;-94
2023/05/14 01:52:07;;;;;;;3.20;2.30;;;;;;;14.38;41.61;99879.50;5076931;28;20027;-95
2023/05/14 01:54:32;;;;;;;3.25;2.03;;;;;;;14.23;39.87;99861.44;5043490;28;20111;-95
2023/05/14 01:56:58;;;;;;;4.65;2.00;;;;;;;14.27;40.06;99859.78;5043352;28;20047;-94
2023/05/14 01:59:23;;;;;;;3.83;2.38;;;;;;;14.20;41.16;99857.41;5060180;28;20024;-95
2023/05/14 02:01:49;;;;;;;3.78;1.90;;;;;;;14.25;40.25;99870.91;5060220;28;20059;-93
2023/05/14 02:04:15;;;;;;;3.72;1.73;;;;;;;14.22;40.69;99868.78;5076429;28;20397;-95
2023/05/14 02:06:40;;;;;;;3.53;1.60;;;;;;;14.27;40.17;99868.72;5058271;28;20044;-95
2023/05/14 02:09:06;;;;;;;3.58;2.10;;;;;;;14.34;39.93;99893.63;5056615;28;20025;-94
2023/05/14 02:11:31;;;;;;;3.60;2.10;;;;;;;14.26;40.00;99874.44;5040422;28;20074;-95
2023/05/14 02:13:57;;;;;;;4.53;2.90;;;;;;;14.28;41.95;99892.03;5056697;28;20359;-95
2023/05/14 02:16:22;;;;;;;4.57;2.42;;;;;;;14.18;44.50;99886.66;5023809;28;20131;-95
2023/05/14 02:18:48;;;;;;;7.78;2.97;;;;;;;14.15;45.57;99887.22;5023348;28;20021;-95
2023/05/14 02:21:13;;;;;;;4.65;2.63;;;;;;;14.10;46.38;99885.34;5039575;28;20028;-95
2023/05/14 02:23:39;;;;;;;3.78;2.50;;;;;;;14.13;46.13;99887.50;5023164;28;20090;-95
2023/05/14 02:26:04;;;;;;;5.90;2.60;;;;;;;14.07;46.25;99872.38;5056529;28;20032;-95
2023/05/14 02:28:30;;;;;;;4.68;2.63;;;;;;;13.89;46.96;99868.41;5023358;28;20051;-94
2023/05/14 02:31:00;;;;;;;4.07;2.50;;;;;;;13.98;47.13;99870.53;5056299;28;20398;-95
2023/05/14 02:33:25;;;;;;;3.63;2.47;;;;;;;13.99;46.65;99872.97;5056735;28;20032;-95
2023/05/14 02:35:50;;;;;;;7.18;2.80;;;;;;;14.03;46.88;99884.84;5055828;28;20402;-94
2023/05/14 02:38:16;;;;;;;4.65;2.67;;;;;;;13.95;46.55;99867.28;5056460;28;20029;-94
2023/05/14 02:40:41;;;;;;;4.75;2.60;;;;;;;13.92;46.57;99865.16;5022563;28;20031;-95
2023/05/14 02:43:07;;;;;;;3.22;2.40;;;;;;;14.02;44.34;99877.81;5055603;28;20035;-94
2023/05/14 02:45:32;;;;;;;5.10;2.92;;;;;;;14.17;45.07;99890.44;5040671;28;20028;-95
2023/05/14 02:47:58;;;;;;;5.60;2.50;;;;;;;13.97;43.82;99849.97;5043680;28;20055;-95
2023/05/14 02:50:23;;;;;;;3.22;1.88;;;;;;;13.98;43.16;99852.38;5060442;28;20410;-94
2023/05/14 02:52:49;;;;;;;3.88;2.22;;;;;;;14.06;42.81;99873.44;5026561;28;20028;-94
2023/05/14 02:55:14;;;;;;;4.35;2.28;;;;;;;14.01;42.55;99865.38;5027218;28;20028;-94
2023/05/14 02:57:40;;;;;;;3.88;2.30;;;;;;;14.13;42.78;99886.69;5043141;28;20021;-95
2023/05/14 03:00:06;;;;;;;3.75;2.60;;;;;;;14.13;44.97;99879.38;5059805;28;20097;-95
2023/05/14 03:02:31;;;;;;;4.00;2.30;;;;;;;14.02;46.90;99885.13;5043060;28;20031;-94
2023/05/14 03:04:57;;;;;;;2.50;2.10;;;;;;;14.07;45.95;99882.38;5063598;28;20068;-95
2023/05/14 03:07:22;;;;;;;3.78;2.20;;;;;;;14.10;44.47;99885.34;5063043;28;20032;-94
2023/05/14 03:09:48;;;;;;;4.25;2.40;;;;;;;14.15;44.62;99904.28;5063111;28;20195;-94
2023/05/14 03:12:13;;;;;;;5.05;2.80;;;;;;;14.01;44.56;99888.91;5063176;28;20038;-94
2023/05/14 03:14:40;;;;;;;4.13;2.55;;;;;;;14.00;43.48;99895.44;5062865;28;20512;-95
2023/05/14 03:17:06;;;;;;;3.58;2.20;;;;;;;13.89;42.55;99887.34;5046517;28;20477;-94
2023/05/14 03:19:32;;;;;;;4.43;2.00;;;;;;;13.90;42.19;99874.63;5063640;28;20036;-95
2023/05/14 03:21:57;;;;;;;2.92;2.30;;;;;;;13.84;42.53;99868.44;5060672;28;20047;-93
2023/05/14 03:24:23;;;;;;;4.80;2.22;;;;;;;13.98;42.33;99884.88;5064566;28;20021;-94
2023/05/14 03:26:49;;;;;;;3.92;2.13;;;;;;;13.93;42.41;99871.38;5070759;28;20409;-95
2023/05/14 03:29:16;;;;;;;3.72;2.38;;;;;;;13.84;42.80;99860.31;5062902;28;20028;-94
2023/05/14 03:31:42;;;;;;;5.13;2.53;;;;;;;14.04;42.26;99878.34;5062891;28;20024;-94
2023/05/14 03:34:08;;;;;;;4.15;2.30;;;;;;;14.08;41.89;99865.84;5063335;28;20027;-95
2023/05/14 03:36:35;;;;;;;3.70;2.22;;;;;;;14.13;41.56;99882.09;5062653;28;20521;-94
2023/05/14 03:39:00;;;;;;;3.28;2.10;;;;;;;14.14;41.36;99880.19;5063959;28;20039;-95
2023/05/14 03:41:26;;;;;;;4.07;2.58;;;;;;;14.32;41.40;99901.22;5046660;28;20478;-94
2023/05/14 03:43:51;;;;;;;4.45;2.45;;;;;;;14.30;42.38;99884.44;5063220;28;20028;-95
2023/05/14 03:46:17;;;;;;;4.03;2.35;;;;;;;14.35;42.55;99878.16;5062696;28;20027;-94
2023/05/14 03:48:42;;;;;;;3.35;1.95;;;;;;;14.40;42.32;99880.84;5062185;28;20028;-95
2023/05/14 03:51:08;;;;;;;3.40;2.20;;;;;;;14.53;42.28;99901.88;5045310;28;20023;-94
2023/05/14 03:53:33;;;;;;;2.97;2.10;;;;;;;14.51;41.82;99887.81;5062369;28;20067;-94
2023/05/14 03:55:59;;;;;;;4.05;2.20;;;;;;;14.62;42.12;99902.13;5078696;28;20011;-94
2023/05/14 03:58:24;;;;;;;4.35;2.38;;;;;;;14.56;42.10;99897.81;5061630;28;20024;-95
2023/05/14 04:00:50;;;;;;;7.97;2.13;;;;;;;14.73;42.00;99908.28;5045829;28;20067;-96
2023/05/14 04:03:15;;;;;;;3.53;2.10;;;;;;;14.77;41.54;99909.31;5045184;28;20027;-94
2023/05/14 04:05:41;;;;;;;3.40;2.08;;;;;;;14.81;41.59;99907.66;5061615;28;20059;-94
2023/05/14 04:08:06;;;;;;;2.83;2.03;;;;;;;14.78;41.61;99899.31;5078623;28;20035;-95
2023/05/14 04:10:33;;;;;;;4.53;2.40;;;;;;;14.64;42.86;99883.69;5078579;28;20031;-95
2023/05/14 04:12:59;;;;;;;6.20;2.25;;;;;;;14.74;43.08;99886.31;5063359;28;20027;-95
2023/05/14 04:15:24;;;;;;;4.95;2.63;;;;;;;14.71;42.94;99884.19;5061974;28;20031;-94
2023/05/14 04:17:50;;;;;;;3.40;2.03;;;;;;;14.73;42.14;99878.44;5078143;28;20024;-94
2023/05/14 04:20:15;;;;;;;6.85;2.13;;;;;;;14.91;41.50;99891.31;5079090;28;20028;-95
2023/05/14 04:22:41;;;;;;;2.95;1.90;;;;;;;14.93;40.97;99878.28;5079572;28;20024;-95
2023/05/14 04:25:07;;;;;;;6.53;2.00;;;;;;;15.01;40.95;99887.72;5078126;28;20035;-94
2023/05/14 04:27:33;;;;;;;4.47;2.40;;;;;;;15.06;40.66;99876.00;5061655;28;20024;-95
2023/05/14 04:29:58;;;;;;;4.53;1.95;;;;;;;15.08;40.40;99877.31;5078705;28;20016;-94
2023/05/14 04:32:24;;;;;;;4.18;1.90;;;;;;;15.19;40.59;99886.19;5078540;28;20032;-95
2023/05/14 04:34:49;;;;;;;3.05;2.13;;;;;;;15.33;40.13;99906.09;5078861;28;20024;-94
2023/05/14 04:37:15;;;;;;;4.63;2.28;;;;;;;15.28;40.34;99879.03;5078143;28;20031;-95
2023/05/14 04:39:41;;;;;;;5.35;1.88;;;;;;;15.31;40.51;99891.22;5078420;28;20413;-95
2023/05/14 04:42:07;;;;;;;2.65;1.88;;;;;;;15.43;40.52;99886.19;5063721;28;20032;-94
2023/05/14 04:44:33;;;;;;;9.15;2.50;;;;;;;15.67;39.68;99913.38;5078579;28;20051;-96
2023/05/14 04:46:59;;;;;;;4.28;2.15;;;;;;;15.81;39.38;99913.50;5061440;28;20085;-95
2023/05/14 04:49:24;;;;;;;3.13;2.08;;;;;;;15.71;39.46;99865.53;5061797;28;20028;-95
2023/05/14 04:51:50;;;;;;;5.00;2.10;;;;;;;15.71;39.04;99875.59;5062323;28;20395;-94
2023/05/14 04:54:15;;;;;;;2.83;1.95;;;;;;;16.02;38.26;99881.47;5046695;28;20028;-95
2023/05/14 04:56:40;;;;;;;3.35;1.83;;;;;;;16.16;38.54;99879.66;5063824;28;20028;-94
2023/05/14 04:59:06;;;;;;;4.35;2.10;;;;;;;16.25;38.65;99863.50;5079689;28;20485;-95
2023/05/14 05:01:32;;;;;;;3.45;1.88;;;;;;;16.22;38.36;99847.75;5063912;28;20525;-95
2023/05/14 05:03:57;;;;;;;2.75;2.10;;;;;;;16.52;38.21;99870.16;5063041;28;20039;-96
2023/05/14 05:06:23;;;;;;;2.80;2.00;;;;;;;16.80;38.49;99897.44;5078679;28;20040;-95
2023/05/14 05:08:48;;;;;;;3.75;2.08;;;;;;;16.81;38.81;99883.59;5077531;28;20077;-94
2023/05/14 05:11:14;;;;;;;4.03;1.90;;;;;;;16.96;38.06;99885.25;5079060;28;20027;-94
2023/05/14 05:13:40;;;;;;;3.90;2.20;;;;;;;16.92;37.60;99863.25;5061568;28;20031;-95
2023/05/14 05:16:05;;;;;;;3.17;2.05;;;;;;;17.09;38.34;99879.00;5061742;28;20020;-95
2023/05/14 05:18:31;;;;;;;3.20;1.77;;;;;;;17.33;37.97;99899.84;5062784;28;20031;-95
2023/05/14 05:20:56;;;;;;;4.55;1.90;;;;;;;17.17;37.99;99861.19;5062075;28;20390;-95
2023/05/14 05:23:22;;;;;;;4.75;2.08;;;;;;;17.22;37.88;99871.19;5078196;28;20478;-96
2023/05/14 05:25:48;;;;;;;3.47;1.98;;;;;;;17.32;37.44;99879.97;5062004;28;20027;-96
2023/05/14 05:28:14;;;;;;;2.80;1.65;;;;;;;17.38;37.29;99880.69;5072158;28;20039;-96
2023/05/14 05:30:39;;;;;;;9.43;1.70;;;;;;;17.52;37.35;99897.81;5071639;28;20028;-97
2023/05/14 05:33:05;;;;;;;3.78;2.17;;;;;;;17.37;37.19;99873.63;5102317;28;20048;-96
2023/05/14 05:35:31;;;;;;;2.67;1.88;;;;;;;17.75;37.13;99903.38;5086538;28;20019;-96
2023/05/14 05:37:57;;;;;;;3.03;1.83;;;;;;;17.57;37.26;99878.66;5090710;28;20042;-95
2023/05/14 05:40:22;;;;;;;4.03;1.85;;;;;;;17.73;36.89;99879.16;5051262;28;20561;-96
2023/05/14 05:42:48;;;;;;;3.22;2.08;;;;;;;17.72;36.88;99880.28;5052049;28;20107;-96
2023/05/14 05:45:13;;;;;;;3.72;1.98;;;;;;;17.86;36.55;99885.75;5068491;28;20208;-96
2023/05/14 05:47:39;;;;;;;3.15;2.03;;;;;;;17.87;37.74;99898.25;5069902;28;20020;-96
2023/05/14 05:50:08;;;;;;;6.50;1.92;;;;;;;17.96;37.23;99907.31;5094012;28;20024;-96
2023/05/14 05:52:33;;;;;;;2.35;1.83;;;;;;;17.78;37.32;99883.69;5057020;28;20027;-96
2023/05/14 05:54:59;;;;;;;3.13;2.10;;;;;;;18.01;37.05;99891.97;5068813;28;20020;-96
2023/05/14 05:57:26;;;;;;;4.30;1.90;;;;;;;18.15;36.84;99893.56;5048925;28;20024;-96
2023/05/14 05:59:51;;;;;;;4.47;1.85;;;;;;;18.29;36.96;99896.25;5082634;28;20024;-95
2023/05/14 06:02:18;;;;;;;4.72;2.35;;;;;;;18.39;36.80;99908.88;5066008;28;20047;-96
2023/05/14 06:04:43;;;;;;;4.88;2.20;;;;;;;18.44;36.38;99916.13;5064884;28;20027;-95
2023/05/14 06:07:09;;;;;;;7.72;1.88;;;;;;;18.61;36.57;99929.09;5048892;28;20042;-96
2023/05/14 06:09:34;;;;;;;2.47;1.80;;;;;;;18.56;36.97;99906.28;5064445;28;20020;-96
2023/05/14 06:12:00;;;;;;;4.88;1.90;;;;;;;18.66;35.82;99918.06;5049935;28;20024;-96
2023/05/14 06:14:25;;;;;;;4.32;2.00;;;;;;;18.85;36.13;99928.84;5065616;28;20031;-96
2023/05/14 06:16:51;;;;;;;2.75;1.90;;;;;;;18.91;35.97;99916.69;5064416;28;20027;-95
2023/05/14 06:19:16;;;;;;;4.30;1.95;;;;;;;18.84;36.15;99917.09;5067109;28;20028;-96
2023/05/14 06:21:43;;;;;;;3.42;2.08;;;;;;;18.99;35.64;99905.03;5073684;28;20016;-96
2023/05/14 06:24:08;;;;;;;3.90;2.13;;;;;;;18.77;35.71;99879.31;5051642;28;20016;-96
2023/05/14 06:26:34;;;;;;;2.80;2.03;;;;;;;19.05;35.63;99886.56;5067741;28;20024;-96
2023/05/14 06:29:00;;;;;;;3.97;2.10;;;;;;;19.14;35.74;99892.91;5085603;28;20035;-96
2023/05/14 06:31:26;;;;;;;3.65;2.33;;;;;;;19.12;36.24;99881.50;5062088;28;20030;-96
2023/05/14 06:34:32;;;;;;;5.38;2.17;;;;;;;19.36;35.57;99911.16;5070105;28;20063;-96
2023/05/14 06:36:58;;;;;;;5.07;1.75;;;;;;;19.18;34.99;99880.25;5086832;28;20515;-96
2023/05/14 06:39:24;;;;;;;6.35;2.10;;;;;;;19.36;35.02;99884.66;5054306;28;20055;-96
2023/05/14 06:41:50;;;;;;;2.60;1.67;;;;;;;19.30;35.07;99879.63;5069200;28;20034;-96
2023/05/14 06:44:17;;;;;;;3.33;1.75;;;;;;;19.56;35.08;99899.66;5071570;28;20024;-96
2023/05/14 06:46:43;;;;;;;3.42;1.80;;;;;;;19.81;35.24;99923.91;5054780;28;20035;-96
2023/05/14 06:49:08;;;;;;;2.22;1.70;;;;;;;19.77;35.65;99901.88;5068573;28;20040;-96
2023/05/14 06:51:35;;;;;;;2.53;1.95;;;;;;;19.83;35.25;99905.25;5068651;28;20036;-95
2023/05/14 06:54:00;;;;;;;3.35;1.80;;;;;;;19.77;34.60;99908.13;5070554;28;20024;-96
2023/05/14 06:58:59;;;;;;;5.22;2.10;;;;;;;20.04;36.00;99924.59;5027356;28;20041;-96
2023/05/14 07:01:30;;;;;;;3.55;2.10;;;;;;;20.17;35.70;99927.22;4981595;28;20036;-96
2023/05/14 07:04:04;;;;;;;6.47;2.78;;;;;;;20.01;35.82;99903.38;5014753;28;20089;-96
2023/05/14 07:06:32;;;;;;;4.43;1.98;;;;;;;20.13;35.05;99907.09;5003201;28;20064;-96
2023/05/14 07:08:59;;;;;;;6.22;2.03;;;;;;;20.32;34.84;99904.06;4989149;28;20049;-96
2023/05/14 07:11:31;;;;;;;3.30;2.00;;;;;;;20.37;34.30;99908.56;5065852;23;20212;-96
2023/05/14 07:13:59;;;;;;;5.38;3.33;;;;;;;20.10;35.05;99902.25;5048763;28;20037;-96
2023/05/14 07:16:25;;;;;;;7.65;2.80;;;;;;;20.34;35.84;99937.38;5027142;28;20029;-96
2023/05/14 07:19:05;;;;;;;3.22;2.00;;;;;;;19.93;35.27;99905.75;5036748;28;20040;-96
2023/05/14 07:21:35;;;;;;;8.03;2.93;;;;;;;19.72;36.41;99910.22;5056092;28;20037;-96
2023/05/14 07:24:08;;;;;;;5.30;2.10;;;;;;;19.70;36.19;99899.59;5009038;28;20070;-96
2023/05/14 07:26:44;;;;;;;3.42;2.10;;;;;;;19.96;36.17;99927.00;5033428;28;20117;-96
2023/05/14 07:29:14;;;;;;;4.25;1.77;;;;;;;19.78;36.61;99912.47;5012330;28;20048;-96
2023/05/14 07:31:40;;;;;;;5.45;2.10;;;;;;;19.89;36.55;99914.94;4993179;28;20033;-96
2023/05/14 07:34:07;;;;;;;8.25;2.35;;;;;;;19.86;36.43;99908.19;4990884;28;20133;-95
2023/05/14 07:36:35;;;;;;;3.08;1.95;;;;;;;20.04;34.73;99913.66;4973811;28;20233;-96
2023/05/14 07:39:01;;;;;;;4.47;2.53;;;;;;;20.15;33.81;99909.50;4990805;28;20092;-96
2023/05/14 07:41:28;;;;;;;5.55;1.88;;;;;;;20.19;33.09;99913.19;4991247;28;20034;-96
2023/05/14 07:43:54;;;;;;;3.13;2.42;;;;;;;20.02;32.24;99913.19;4989462;28;20038;-96
2023/05/14 07:46:26;;;;;;;2.80;1.70;;;;;;;19.53;32.80;99910.44;4996271;28;20073;-96
2023/05/14 07:48:55;;;;;;;4.18;1.90;;;;;;;19.47;32.88;99917.97;4999077;28;20024;-96
2023/05/14 07:51:21;;;;;;;5.18;1.95;;;;;;;19.11;33.28;99918.91;4979214;28;20045;-96
2023/05/14 07:53:50;;;;;;;4.97;1.75;;;;;;;19.16;32.99;99921.50;4987984;28;20042;-96
2023/05/14 07:56:16;;;;;;;6.75;1.77;;;;;;;19.09;33.11;99928.50;4987259;28;20041;-96
2023/05/14 07:58:45;;;;;;;5.13;2.00;;;;;;;19.04;33.24;99932.16;4989033;28;20029;-96
2023/05/14 08:01:11;;;;;;;5.72;1.77;;;;;;;19.06;32.23;99924.47;4990517;28;20037;-96
2023/05/14 08:03:44;;;;;;;6.18;2.00;;;;;;;19.13;33.16;99943.97;4990091;28;20030;-96
2023/05/14 08:06:12;;;;;;;2.67;2.00;;;;;;;19.08;32.29;99938.63;5248642;22;20072;-96
2023/05/14 08:08:45;;;;;;;3.42;1.77;;;;;;;18.75;32.79;99927.13;5030670;28;20056;-96
2023/05/14 08:11:11;;;;;;;4.32;1.88;;;;;;;19.07;32.86;99925.28;4999804;28;20029;-96
2023/05/14 08:13:38;;;;;;;5.82;2.28;;;;;;;19.17;32.39;99930.47;4993563;28;20026;-94
2023/05/14 08:16:07;;;;;;;3.90;1.83;;;;;;;19.19;32.43;99930.97;4992434;28;20025;-96
2023/05/14 08:18:32;;;;;;;4.97;1.85;;;;;;;19.37;32.16;99940.06;5023016;28;20029;-94
2023/05/14 08:20:58;;;;;;;4.43;1.98;;;;;;;19.50;31.73;99950.09;4987140;28;20025;-95
2023/05/14 08:23:25;;;;;;;4.60;1.80;;;;;;;19.46;31.62;99951.84;5005961;28;20052;-94
2023/05/14 08:25:50;;;;;;;2.78;1.95;;;;;;;19.45;32.07;99965.84;4987854;28;20103;-94
2023/05/14 08:28:16;;;;;;;2.63;1.73;;;;;;;19.24;31.53;99938.25;4987968;28;20480;-94
2023/05/14 08:30:41;;;;;;;3.97;2.05;;;;;;;19.46;31.70;99945.56;5003721;28;20471;-94
2023/05/14 08:33:07;;;;;;;4.40;1.80;;;;;;;19.45;31.60;99944.78;5003538;28;20029;-95
2023/05/14 08:35:32;;;;;;;3.38;2.00;;;;;;;19.55;31.68;99963.63;4986739;28;20029;-93
2023/05/14 08:37:58;;;;;;;3.25;1.90;;;;;;;19.67;31.28;99949.38;4987490;28;20026;-94
2023/05/14 08:40:23;;;;;;;2.28;1.60;;;;;;;19.78;31.34;99966.34;4988287;28;20026;-94
2023/05/14 08:42:50;;;;;;;2.95;1.80;;;;;;;19.86;30.31;99948.34;4987914;28;20032;-95
2023/05/14 08:45:28;;;;;;;9.13;2.17;;;;;;;20.08;29.48;99959.19;4988134;28;20025;-95
2023/05/14 08:47:53;;;;;;;8.88;2.05;;;;;;;19.88;30.13;99955.13;5004210;28;20029;-96
2023/05/14 08:50:19;;;;;;;10.35;2.00;;;;;;;19.85;30.06;99957.69;4987450;28;20029;-95
2023/05/14 08:52:44;;;;;;;4.40;1.75;;;;;;;19.74;30.28;99963.41;5004067;28;20029;-94
2023/05/14 08:55:10;;;;;;;6.30;2.40;;;;;;;19.82;29.82;99948.19;4987588;28;20036;-95
2023/05/14 08:57:36;;;;;;;8.23;2.10;;;;;;;19.94;30.27;99947.56;5002836;28;20029;-95
2023/05/14 09:00:21;;;;;;;4.55;1.90;;;;;;;19.74;30.65;99957.97;4986252;28;20592;-95
2023/05/14 09:02:47;;;;;;;5.45;2.22;;;;;;;19.93;30.26;99981.50;5005142;28;20033;-95
2023/05/14 09:05:12;;;;;;;4.60;2.30;;;;;;;19.84;30.30;99970.53;4987046;28;20052;-95
2023/05/14 09:07:38;;;;;;;5.03;2.88;;;;;;;19.83;30.27;99963.44;4986004;28;20125;-95
2023/05/14 09:10:04;;;;;;;3.85;1.90;;;;;;;19.48;30.23;99959.72;4986709;28;20463;-94
2023/05/14 09:12:30;;;;;;;3.75;2.03;;;;;;;19.56;30.73;99958.97;4986524;28;20033;-96
2023/05/14 09:14:55;;;;;;;2.75;1.80;;;;;;;19.68;31.47;99959.19;4987103;28;20087;-95
2023/05/14 09:17:21;;;;;;;2.20;1.70;;;;;;;19.41;31.33;99967.56;4986972;28;20124;-95
2023/05/14 09:19:51;;;;;;;4.40;1.85;;;;;;;19.58;30.97;99952.06;5003213;28;20442;-95
2023/05/14 09:22:17;;;;;;;4.03;1.83;;;;;;;19.57;30.56;99958.66;4988037;28;20029;-95
2023/05/14 09:24:43;;;;;;;4.40;2.05;;;;;;;19.70;30.52;99950.69;4987031;28;20032;-95
2023/05/14 09:27:13;;;;;;;11.55;2.50;;;;;;;19.83;30.36;99949.00;4986276;28;20117;-95
2023/05/14 09:29:39;;;;;;;5.38;2.10;;;;;;;19.89;30.35;99943.06;4986525;28;20036;-95
2023/05/14 09:32:06;;;;;;;8.70;2.80;;;;;;;20.31;29.91;99965.34;5002708;28;20066;-95
2023/05/14 09:34:32;;;;;;;3.65;2.00;;;;;;;20.49;29.61;99968.13;4986299;28;20415;-95
2023/05/14 09:37:06;;;;;;;3.88;2.00;;;;;;;20.55;30.19;99958.63;4986318;28;20021;-95
2023/05/14 09:39:32;;;;;;;3.45;1.60;;;;;;;20.62;29.62;99966.38;4985632;28;20065;-96
2023/05/14 09:41:57;;;;;;;6.03;1.80;;;;;;;20.72;29.48;99960.59;5003285;28;20021;-95
2023/05/14 09:44:23;;;;;;;8.52;1.85;;;;;;;20.31;29.86;99946.19;4987285;28;20032;-96
2023/05/14 09:46:49;;;;;;;5.88;1.90;;;;;;;20.55;30.03;99950.44;4987662;28;20036;-96
2023/05/14 09:49:14;;;;;;;5.20;1.70;;;;;;;20.53;30.13;99966.34;5018791;28;20037;-94
2023/05/14 09:51:40;;;;;;;5.93;2.00;;;;;;;20.57;30.49;99959.13;5003498;28;20613;-94
2023/05/14 09:54:06;;;;;;;3.15;1.73;;;;;;;20.17;30.67;99932.69;5003135;28;20025;-94
2023/05/14 09:56:32;;;;;;;2.70;1.70;;;;;;;20.27;31.30;99966.31;5037172;28;20029;-95
2023/05/14 09:58:57;;;;;;;3.92;2.05;;;;;;;20.48;31.00;99974.72;5005928;28;20032;-94
2023/05/14 10:01:23;;;;;;;5.47;1.90;;;;;;;20.53;30.99;99952.69;5003625;28;20479;-94
2023/05/14 10:03:49;;;;;;;4.50;1.90;;;;;;;20.37;31.30;99969.53;5038089;28;20074;-94
2023/05/14 10:06:16;;;;;;;3.55;1.75;;;;;;;20.49;31.57;99940.78;5003583;28;20041;-94
2023/05/14 10:08:43;;;;;;;6.25;1.67;;;;;;;20.48;32.19;99955.56;5036637;28;20041;-94
2023/05/14 10:11:23;;;;;;;11.02;2.63;;;;;;;20.73;31.42;99943.88;5002457;28;20398;-94
2023/05/14 10:13:58;;;;;;;7.72;2.80;;;;;;;20.77;31.50;99947.56;5019910;28;20163;-93
2023/05/14 10:16:28;;;;;;;6.25;2.60;;;;;;;20.80;31.15;99943.38;5002763;28;20036;-94
2023/05/14 10:18:55;;;;;;;7.00;3.35;;;;;;;20.93;31.03;99958.81;5003677;28;20022;-94
2023/05/14 10:21:21;;;;;;;7.10;3.08;;;;;;;20.82;31.57;99943.84;5018479;28;20036;-94
2023/05/14 10:23:47;;;;;;;6.88;1.55;;;;;;;20.81;31.67;99947.72;5002316;28;20026;-94
2023/05/14 10:26:12;;;;;;;6.55;2.03;;;;;;;20.78;31.32;99919.06;5019844;28;20117;-95
2023/05/14 10:28:38;;;;;;;10.57;2.50;;;;;;;20.87;31.03;99915.50;5004683;28;20026;-96
2023/05/14 10:31:03;;;;;;;8.05;3.13;;;;;;;20.86;31.41;99933.06;5002740;28;20029;-95
2023/05/14 10:33:29;;;;;;;7.95;2.60;;;;;;;21.09;31.43;99920.00;5036196;28;20030;-96
2023/05/14 10:36:02;;;;;;;11.95;3.50;;;;;;;21.24;31.06;99924.94;5018937;28;20021;-95
2023/05/14 10:38:28;;;;;;;5.35;2.55;;;;;;;21.22;31.48;99890.78;5017515;28;20085;-95
2023/05/14 10:40:59;;;;;;;6.65;2.75;;;;;;;21.38;31.05;99884.44;5034823;28;20025;-94
2023/05/14 10:43:27;;;;;;;5.38;2.65;;;;;;;21.64;31.44;99883.53;5018666;28;20096;-95
2023/05/14 10:45:52;;;;;;;3.35;1.80;;;;;;;21.85;31.89;99897.34;5033964;28;20030;-95
2023/05/14 10:48:18;;;;;;;8.35;3.08;;;;;;;21.93;30.97;99870.97;5019181;28;20033;-96
2023/05/14 10:50:46;;;;;;;6.10;2.15;;;;;;;21.84;31.34;99883.94;5000930;28;20063;-94
2023/05/14 10:53:12;;;;;;;7.70;2.30;;;;;;;22.01;30.56;99870.13;5000593;28;20398;-96
2023/05/14 10:55:38;;;;;;;4.10;1.90;;;;;;;21.79;32.02;99861.06;5033863;28;20083;-95
2023/05/14 10:58:03;;;;;;;3.97;1.92;;;;;;;21.43;32.46;99850.59;5000949;28;20061;-94
2023/05/14 11:00:29;;;;;;;4.93;1.90;;;;;;;21.47;32.10;99856.25;5034331;28;20057;-95
2023/05/14 11:02:55;;;;;;;7.32;3.30;;;;;;;21.76;31.88;99841.72;5001430;28;20030;-95
2023/05/14 11:05:21;;;;;;;7.88;2.55;;;;;;;21.96;31.48;99851.94;5018335;28;20030;-95
2023/05/14 11:07:47;;;;;;;6.32;2.13;;;;;;;21.82;32.36;99832.19;5038750;28;20111;-95
2023/05/14 11:10:13;;;;;;;5.47;1.80;;;;;;;21.76;32.43;99848.00;5021508;28;20037;-95
2023/05/14 11:12:40;;;;;;;6.55;1.80;;;;;;;21.69;32.66;99825.03;5038230;28;20029;-96
2023/05/14 11:15:10;;;;;;;8.95;3.05;;;;;;;22.02;31.27;99805.09;5037937;28;20403;-96
2023/05/14 11:17:37;;;;;;;4.15;1.80;;;;;;;21.89;32.17;99804.22;5039053;28;20021;-95
2023/05/14 11:20:04;;;;;;;10.68;1.80;;;;;;;21.89;32.39;99801.50;5037940;28;20036;-96
2023/05/14 11:22:29;;;;;;;2.35;1.90;;;;;;;21.77;32.08;99804.97;5038094;28;20036;-95
2023/05/14 11:24:55;;;;;;;10.98;3.50;;;;;;;22.05;31.95;99820.91;5037022;28;20030;-95
2023/05/14 11:27:23;;;;;;;11.85;3.08;;;;;;;22.08;31.38;99818.28;5038175;28;20099;-96
2023/05/14 11:29:49;;;;;;;8.75;3.20;;;;;;;22.28;31.34;99816.69;5037990;28;20459;-94
2023/05/14 11:32:15;;;;;;;4.18;2.00;;;;;;;22.42;31.60;99821.09;5038282;28;20025;-94
2023/05/14 11:34:41;;;;;;;3.45;1.60;;;;;;;22.39;31.89;99828.88;5020392;28;20041;-93